Airport View

Enter AWOS ICAO identifier for current METAR.

ex. KFNL

KPHT 191215Z AUTO 05008KT 10SM CLR M02/M05 A3049 RMK A01

19 Feb 2019 12:41

Frequency: 118.825

Phone: 731-644-0451

Other Area AWOS: KHZD - KCEY - KM25 - KUCY

TAF KHOP 190800Z 1908/2014 05009KT 9999 FEW160 BKN230 QNH3049INS BECMG 1914/1915 06012G18KT 9999 BKN200 QNH3033INS BECMG 1922/1923 04012G18KT 3200 -RA BKN015 OVC030 620809 QNH3019INS BECMG 2002/2003 05015G25KT 4800 -RA OVC007 QNH2985INS TEMPO 2003/2009 -TSRA OVC005CB BECMG 2009/2010 14012KT 8000 -RA OVC005 QNH2982INS TX06/2008Z TNM02/1908Z